Time;durP1;ratioP1;P1;durP2;ratioP2;P2;SDS_P1;SDS_P2;PMS_P1;PMS_P2;Temp;Humidity;BMP_temperature;BMP_pressure;BME280_temperature;BME280_humidity;BME280_pressure;Samples;Min_cycle;Max_cycle;Signal;HPM_P1;HPM_P2
2021/12/28 00:01:44;;;;;;;9.80;7.68;;;9.60;99.90;;;;;;5054762;28;20021;-82
2021/12/28 00:04:16;;;;;;;12.55;8.68;;;9.60;99.90;;;;;;5028487;28;20033;-81
2021/12/28 00:06:51;;;;;;;10.05;7.93;;;9.60;99.90;;;;;;5056441;28;20466;-83
2021/12/28 00:09:23;;;;;;;9.55;7.20;;;9.60;99.90;;;;;;5031242;28;20033;-83
2021/12/28 00:11:51;;;;;;;12.43;8.25;;;9.60;99.90;;;;;;5050446;28;20022;-83
2021/12/28 00:14:48;;;;;;;9.48;7.68;;;9.60;99.90;;;;;;5031189;28;20436;-83
2021/12/28 00:20:03;;;;;;;11.40;8.27;;;9.60;99.90;;;;;;5059662;28;20062;-82
2021/12/28 00:22:52;;;;;;;12.98;8.50;;;9.60;99.90;;;;;;5033167;28;20372;-83
2021/12/28 00:25:26;;;;;;;9.82;8.02;;;9.70;99.90;;;;;;5051551;28;20474;-83
2021/12/28 00:28:10;;;;;;;9.48;7.97;;;9.70;99.90;;;;;;5034453;28;20131;-83
2021/12/28 00:33:49;;;;;;;;;;;9.70;99.90;;;;;;5030905;28;20138;-86
2021/12/28 00:36:15;;;;;;;8.55;6.93;;;9.70;99.90;;;;;;5059424;28;19993;-85
2021/12/28 00:39:00;;;;;;;9.40;7.72;;;9.70;99.90;;;;;;5057622;28;20052;-83
2021/12/28 00:42:26;;;;;;;10.07;7.85;;;9.60;99.90;;;;;;5041487;28;20029;-84
2021/12/28 00:45:04;;;;;;;10.80;8.20;;;9.60;99.90;;;;;;5038484;28;20140;-83
2021/12/28 00:47:34;;;;;;;11.75;7.57;;;9.50;99.90;;;;;;5052364;28;20033;-83
2021/12/28 00:50:26;;;;;;;11.40;7.35;;;9.50;99.90;;;;;;5055136;28;20028;-83
2021/12/28 00:53:18;;;;;;;11.35;7.70;;;9.50;99.90;;;;;;5049792;28;20045;-83
2021/12/28 00:56:29;;;;;;;11.70;8.07;;;9.50;99.90;;;;;;5055597;28;20063;-83
2021/12/28 00:59:30;;;;;;;11.45;7.55;;;9.50;99.90;;;;;;5047504;28;20106;-85
2021/12/28 01:02:44;;;;;;;9.50;7.43;;;9.40;99.90;;;;;;5008640;28;20086;-84
2021/12/28 01:06:19;;;;;;;11.85;7.50;;;9.50;99.90;;;;;;5014849;28;20066;-85
2021/12/28 01:08:25;;;;;;;12.95;8.02;;;9.60;99.90;;;;;;5044297;28;20177;-84
2021/12/28 01:10:58;;;;;;;9.90;7.45;;;9.60;99.90;;;;;;5054002;28;20082;-85
2021/12/28 01:13:50;;;;;;;12.50;8.15;;;9.60;99.90;;;;;;5050065;28;20031;-85
2021/12/28 01:16:45;;;;;;;11.63;7.65;;;9.60;99.90;;;;;;5026975;28;20063;-84
2021/12/28 01:19:17;;;;;;;9.82;8.27;;;9.70;99.90;;;;;;5053234;28;20537;-83
2021/12/28 01:22:01;;;;;;;12.20;8.02;;;9.60;99.90;;;;;;5058291;28;20485;-85
2021/12/28 01:24:28;;;;;;;10.20;7.93;;;9.60;99.90;;;;;;5051641;28;20471;-86
2021/12/28 01:26:54;;;;;;;9.40;7.57;;;9.50;99.90;;;;;;5040456;28;20029;-86
2021/12/28 01:29:20;;;;;;;11.40;7.70;;;9.60;99.90;;;;;;5054183;28;20506;-86
2021/12/28 01:31:46;;;;;;;10.07;7.97;;;9.50;99.90;;;;;;5053748;28;20028;-86
2021/12/28 01:34:12;;;;;;;16.35;8.18;;;9.60;99.90;;;;;;5054293;28;20510;-86
2021/12/28 01:36:37;;;;;;;12.00;8.00;;;9.50;99.90;;;;;;5057093;28;20021;-87
2021/12/28 01:39:05;;;;;;;11.30;8.15;;;9.50;99.90;;;;;;5052729;28;20040;-87
2021/12/28 01:41:35;;;;;;;9.07;7.70;;;9.50;99.90;;;;;;5042377;28;20029;-87
2021/12/28 01:44:05;;;;;;;13.07;8.48;;;9.60;99.90;;;;;;5054885;28;20032;-88
2021/12/28 01:46:35;;;;;;;14.43;8.38;;;9.60;99.90;;;;;;5052579;28;20497;-88
2021/12/28 01:49:02;;;;;;;10.68;8.20;;;9.60;99.90;;;;;;5052286;28;20556;-87
2021/12/28 01:51:28;;;;;;;8.93;7.20;;;9.60;99.90;;;;;;5060001;28;20490;-86
2021/12/28 01:53:57;;;;;;;12.00;7.97;;;9.50;99.90;;;;;;5053357;28;20482;-87
2021/12/28 01:56:32;;;;;;;8.68;7.50;;;9.50;99.90;;;;;;5064148;28;20036;-86
2021/12/28 02:02:15;;;;;;;8.43;7.38;;;9.60;99.90;;;;;;5050225;28;20070;-87
2021/12/28 02:07:55;;;;;;;9.10;7.15;;;9.50;99.90;;;;;;5047029;28;20060;-86
2021/12/28 02:11:16;;;;;;;;;;;;;;;;;;;;;
2021/12/28 02:17:40;;;;;;;12.90;9.45;;;9.60;99.90;;;;;;4971027;28;20034;-85
2021/12/28 02:27:53;;;;;;;10.15;9.05;;;9.60;99.90;;;;;;4918824;29;20100;-85
2021/12/28 02:41:09;;;;;;;13.88;9.15;;;9.60;99.90;;;;;;4865018;29;20037;-84
2021/12/28 03:08:11;;;;;;;;;;;;;;;;;;;;;
2021/12/28 03:10:54;;;;;;;11.48;8.27;;;9.60;99.90;;;;;;4854504;29;20048;-85
2021/12/28 03:14:06;;;;;;;11.30;7.93;;;9.60;99.90;;;;;;4864070;29;20583;-85
2021/12/28 03:16:35;;;;;;;10.88;8.07;;;9.60;99.90;;;;;;4903262;29;20521;-85
2021/12/28 03:22:20;;;;;;;15.80;10.13;;;9.60;99.90;;;;;;4924528;29;20119;-85
2021/12/28 03:25:29;;;;;;;11.55;9.52;;;9.50;99.90;;;;;;5008198;28;20037;-85
2021/12/28 03:28:08;;;;;;;;;;;;;;;;;;;;;
2021/12/28 03:31:05;;;;;;;16.35;12.48;;;9.50;99.90;;;;;;5033064;28;20029;-84
2021/12/28 04:27:14;;;;;;;;;;;;;;;;;;;;;
2021/12/28 04:36:23;;;;;;;20.45;12.07;;;9.70;99.90;;;;;;4715073;30;20059;-85
2021/12/28 04:39:54;;;;;;;;;;;;;;;;;;;;;
2021/12/28 04:42:36;;;;;;;14.73;11.20;;;9.60;99.90;;;;;;4678875;30;20042;-84
2021/12/28 04:52:17;;;;;;;13.02;9.93;;;9.60;99.90;;;;;;4919236;28;20111;-86
2021/12/28 04:55:31;;;;;;;;;;;9.70;99.90;;;;;;4909315;29;20038;-85
2021/12/28 04:57:35;;;;;;;13.27;10.30;;;9.60;99.90;;;;;;4906800;29;19927;-85
2021/12/28 05:00:29;;;;;;;14.80;10.63;;;9.60;99.90;;;;;;4916060;29;20040;-85
2021/12/28 05:03:07;;;;;;;12.98;10.65;;;9.60;99.90;;;;;;4918595;29;20032;-84
2021/12/28 05:06:10;;;;;;;15.48;10.90;;;9.60;99.90;;;;;;4969631;28;20121;-85
2021/12/28 05:08:42;;;;;;;16.40;10.85;;;9.60;99.90;;;;;;5031410;28;20061;-85
2021/12/28 05:12:01;;;;;;;14.38;10.60;;;9.60;99.90;;;;;;5041766;28;20060;-86
2021/12/28 05:14:27;;;;;;;11.38;9.50;;;9.70;99.90;;;;;;5014795;28;20487;-85
2021/12/28 05:17:11;;;;;;;17.08;9.75;;;9.60;99.90;;;;;;5041593;28;20029;-83
2021/12/28 05:20:04;;;;;;;15.50;9.60;;;9.70;99.90;;;;;;5014831;28;20033;-85
2021/12/28 05:22:42;;;;;;;10.07;8.73;;;9.70;99.90;;;;;;5028648;28;20033;-84
2021/12/28 05:25:41;;;;;;;15.32;9.43;;;9.80;99.90;;;;;;5006749;28;20064;-85
2021/12/28 05:31:20;;;;;;;13.55;9.40;;;9.80;99.90;;;;;;5021333;28;20041;-85
2021/12/28 05:33:59;;;;;;;10.80;8.52;;;9.80;99.90;;;;;;4994717;28;20029;-85
2021/12/28 05:36:28;;;;;;;10.65;8.60;;;9.70;99.90;;;;;;5018238;28;20400;-86
2021/12/28 05:39:10;;;;;;;11.40;9.32;;;9.70;99.90;;;;;;5013601;28;20042;-86
2021/12/28 05:41:36;;;;;;;12.07;9.68;;;9.70;99.90;;;;;;5014849;28;20029;-86
2021/12/28 05:44:08;;;;;;;14.95;10.10;;;9.60;99.90;;;;;;5026352;28;20064;-86
2021/12/28 05:46:45;;;;;;;12.88;8.98;;;9.70;99.90;;;;;;5006947;28;20048;-86
2021/12/28 05:49:22;;;;;;;14.35;9.02;;;9.70;99.90;;;;;;4987822;28;20471;-85
2021/12/28 05:52:03;;;;;;;10.95;8.07;;;9.70;99.90;;;;;;5019010;28;20412;-86
2021/12/28 05:54:54;;;;;;;9.65;7.85;;;9.70;99.90;;;;;;5013904;28;20056;-86
2021/12/28 05:57:30;;;;;;;11.63;7.47;;;9.70;99.90;;;;;;5011426;28;20069;-85
2021/12/28 06:00:13;;;;;;;10.40;7.53;;;9.70;99.90;;;;;;5012452;28;20030;-87
2021/12/28 06:02:39;;;;;;;10.80;7.53;;;9.70;99.90;;;;;;5016750;28;20121;-86
2021/12/28 06:05:11;;;;;;;11.85;7.97;;;9.60;99.90;;;;;;5014029;28;20159;-84
2021/12/28 06:08:17;;;;;;;18.00;8.90;;;9.60;99.90;;;;;;5011927;28;20033;-84
2021/12/28 06:10:55;;;;;;;12.65;9.75;;;9.50;99.90;;;;;;4978075;28;20357;-85
2021/12/28 06:13:21;;;;;;;15.95;11.20;;;9.60;99.90;;;;;;5032304;28;20071;-85
2021/12/28 06:15:47;;;;;;;14.85;12.52;;;9.60;99.90;;;;;;5014435;28;20022;-84
2021/12/28 06:18:13;;;;;;;18.15;13.95;;;9.50;99.90;;;;;;5010896;28;20046;-86
2021/12/28 06:20:45;;;;;;;20.98;13.88;;;9.50;99.90;;;;;;5016160;28;20026;-86
2021/12/28 06:23:12;;;;;;;;;;;9.40;99.90;;;;;;4991373;28;20054;-85
2021/12/28 06:25:41;;;;;;;15.95;10.98;;;9.40;99.90;;;;;;4996348;28;20403;-85
2021/12/28 06:28:07;;;;;;;15.57;12.50;;;9.40;99.90;;;;;;4997945;28;20026;-85
2021/12/28 06:30:36;;;;;;;14.38;11.88;;;9.40;99.90;;;;;;5005900;28;20026;-85
2021/12/28 06:33:12;;;;;;;22.17;15.63;;;9.50;99.90;;;;;;5011773;28;20041;-86
2021/12/28 06:35:42;;;;;;;23.52;17.08;;;9.40;99.90;;;;;;4997367;28;20564;-85
2021/12/28 06:38:17;;;;;;;29.60;18.63;;;9.30;99.90;;;;;;5011044;28;20042;-85
2021/12/28 06:40:46;;;;;;;29.55;19.55;;;9.30;99.90;;;;;;5000081;28;20050;-85
2021/12/28 06:43:12;;;;;;;29.63;21.02;;;9.20;99.90;;;;;;5011043;28;20111;-86
2021/12/28 06:45:46;;;;;;;30.90;22.90;;;9.20;99.90;;;;;;5007369;28;20026;-86
2021/12/28 06:48:12;;;;;;;39.20;24.23;;;9.20;99.90;;;;;;5000747;28;20029;-85
2021/12/28 06:50:50;;;;;;;;;;;;;;;;;;;;;
2021/12/28 06:53:30;;;;;;;36.10;23.60;;;9.10;99.90;;;;;;5011815;28;20499;-85
2021/12/28 06:55:58;;;;;;;35.45;24.48;;;9.20;99.90;;;;;;5005471;28;20022;-85
2021/12/28 06:58:30;;;;;;;38.95;24.27;;;9.10;99.90;;;;;;5011570;28;20444;-85
2021/12/28 07:01:04;;;;;;;36.40;23.70;;;9.20;99.90;;;;;;5007350;28;20026;-86
2021/12/28 07:03:30;;;;;;;33.45;23.98;;;9.20;99.90;;;;;;4989763;28;20393;-85
2021/12/28 07:05:56;;;;;;;30.85;22.48;;;9.20;99.90;;;;;;5007515;28;20026;-84
2021/12/28 07:08:22;;;;;;;32.30;23.42;;;9.20;99.90;;;;;;5011072;28;20022;-85
2021/12/28 07:10:54;;;;;;;30.23;22.75;;;9.20;99.90;;;;;;4997278;28;20055;-84
2021/12/28 07:13:21;;;;;;;31.42;22.70;;;9.30;99.90;;;;;;5011846;28;20365;-86
2021/12/28 07:15:47;;;;;;;35.67;22.77;;;9.30;99.90;;;;;;5002987;28;20031;-86
2021/12/28 07:18:16;;;;;;;30.60;20.17;;;9.40;99.90;;;;;;5011719;28;20041;-87
2021/12/28 07:20:44;;;;;;;25.15;18.20;;;9.40;99.90;;;;;;5003905;28;20125;-84
2021/12/28 07:23:11;;;;;;;24.90;18.52;;;9.50;99.90;;;;;;4998779;28;20042;-86
2021/12/28 07:25:36;;;;;;;23.30;16.25;;;9.70;99.90;;;;;;5032555;28;20417;-84
2021/12/28 07:28:07;;;;;;;19.63;15.07;;;9.80;99.90;;;;;;5033256;28;20026;-83
2021/12/28 07:30:33;;;;;;;24.20;15.25;;;9.80;99.90;;;;;;5040878;28;20195;-86
2021/12/28 07:33:00;;;;;;;21.08;15.52;;;10.00;99.90;;;;;;5046493;28;20535;-88
2021/12/28 07:35:37;;;;;;;27.48;19.73;;;10.00;99.90;;;;;;5053671;28;20013;-89
2021/12/28 07:38:19;;;;;;;25.35;18.85;;;10.10;99.90;;;;;;5060567;28;20040;-85
2021/12/28 07:40:56;;;;;;;24.25;18.30;;;10.10;99.90;;;;;;5034093;28;20025;-91
2021/12/28 07:44:16;;;;;;;;;;;;;;;;;;;;;
2021/12/28 07:46:40;;;;;;;20.27;14.95;;;10.30;99.90;;;;;;5046519;28;20082;-91
2021/12/28 07:49:06;;;;;;;20.85;14.82;;;10.30;99.90;;;;;;5051902;28;20064;-90
2021/12/28 07:51:34;;;;;;;20.08;14.23;;;10.30;99.90;;;;;;5038240;28;20093;-89
2021/12/28 07:54:01;;;;;;;20.60;13.57;;;10.40;99.90;;;;;;5034522;28;20024;-89
2021/12/28 07:56:27;;;;;;;21.15;13.75;;;10.40;99.90;;;;;;5052819;28;20036;-92
2021/12/28 07:59:02;;;;;;;19.77;13.38;;;10.50;99.90;;;;;;5054149;28;20041;-89
2021/12/28 08:01:28;;;;;;;17.33;13.05;;;10.50;99.90;;;;;;5049529;28;20021;-89
2021/12/28 08:03:57;;;;;;;27.02;13.38;;;10.60;99.90;;;;;;5054502;28;20032;-89
2021/12/28 08:06:26;;;;;;;21.73;13.40;;;10.60;99.90;;;;;;5057527;28;20040;-87
2021/12/28 08:08:51;;;;;;;21.15;15.13;;;10.70;99.90;;;;;;5050999;28;20035;-91
2021/12/28 08:11:17;;;;;;;23.77;14.43;;;10.70;99.90;;;;;;5054611;28;20453;-90
2021/12/28 08:13:43;;;;;;;25.50;15.13;;;10.70;99.90;;;;;;5033145;28;20555;-90
2021/12/28 08:16:09;;;;;;;24.42;14.63;;;10.80;99.90;;;;;;5050200;28;20364;-91
2021/12/28 08:18:35;;;;;;;24.98;14.27;;;10.80;99.90;;;;;;5031819;28;20032;-90
2021/12/28 08:21:01;;;;;;;30.60;13.77;;;10.80;99.90;;;;;;5051368;28;20025;-89
2021/12/28 08:23:27;;;;;;;28.20;13.48;;;10.90;99.90;;;;;;5050755;28;20055;-89
2021/12/28 08:25:53;;;;;;;26.23;14.45;;;11.00;99.90;;;;;;5039013;28;20103;-89
2021/12/28 08:28:19;;;;;;;24.23;15.13;;;11.00;99.90;;;;;;5050987;28;20483;-89
2021/12/28 08:30:49;;;;;;;37.75;20.60;;;10.90;99.90;;;;;;5039238;28;20040;-88
2021/12/28 08:33:18;;;;;;;39.25;21.70;;;10.90;99.90;;;;;;5051263;28;20048;-89
2021/12/28 08:35:44;;;;;;;32.42;19.55;;;10.90;99.90;;;;;;5054404;28;20095;-89
2021/12/28 08:38:12;;;;;;;30.35;17.80;;;11.00;99.90;;;;;;5056819;28;20127;-89
2021/12/28 08:40:40;;;;;;;29.50;18.35;;;11.00;99.90;;;;;;5055334;28;20021;-89
2021/12/28 08:43:07;;;;;;;32.35;19.48;;;10.90;99.90;;;;;;5055269;28;20033;-88
2021/12/28 08:45:33;;;;;;;25.08;16.98;;;10.90;99.90;;;;;;5060098;28;20024;-88
2021/12/28 08:47:59;;;;;;;29.85;17.35;;;11.00;99.90;;;;;;5058536;28;20024;-89
2021/12/28 08:50:25;;;;;;;23.02;15.38;;;11.00;99.90;;;;;;5063573;28;20025;-89
2021/12/28 08:52:51;;;;;;;27.60;16.02;;;11.10;99.90;;;;;;5037024;28;20039;-90
2021/12/28 08:55:19;;;;;;;26.45;15.48;;;11.10;99.90;;;;;;5060170;28;20391;-88
2021/12/28 08:57:46;;;;;;;23.15;14.88;;;11.30;99.90;;;;;;5055156;28;20029;-88
2021/12/28 09:00:17;;;;;;;33.70;16.20;;;11.40;99.90;;;;;;5069916;28;20044;-89
2021/12/28 09:02:43;;;;;;;26.40;16.85;;;11.40;99.90;;;;;;5041929;28;20494;-87
2021/12/28 09:05:09;;;;;;;30.30;19.50;;;11.30;99.90;;;;;;5039309;28;20029;-87
2021/12/28 09:07:34;;;;;;;31.50;22.05;;;11.10;99.90;;;;;;5056731;28;20036;-86
2021/12/28 09:10:00;;;;;;;39.72;25.00;;;10.90;99.90;;;;;;5056591;28;20021;-85
2021/12/28 09:12:26;;;;;;;38.83;24.38;;;10.80;99.90;;;;;;5033383;28;20352;-89
2021/12/28 09:14:52;;;;;;;34.60;24.13;;;10.80;99.90;;;;;;5057311;28;20067;-87
2021/12/28 09:17:18;;;;;;;37.83;24.60;;;10.90;99.90;;;;;;5039455;28;20056;-85
2021/12/28 09:19:44;;;;;;;35.67;26.13;;;10.90;99.90;;;;;;5055339;28;20027;-84
2021/12/28 09:22:10;;;;;;;37.97;27.45;;;10.90;99.90;;;;;;5054973;28;20036;-83
2021/12/28 09:24:37;;;;;;;44.47;29.35;;;10.80;99.90;;;;;;5037547;28;20131;-83
2021/12/28 09:27:06;;;;;;;46.22;27.25;;;10.80;99.90;;;;;;5053364;28;20444;-83
2021/12/28 09:29:37;;;;;;;43.45;27.05;;;10.80;99.90;;;;;;5055105;28;20048;-85
2021/12/28 09:32:03;;;;;;;33.60;24.08;;;10.80;99.90;;;;;;5032551;28;20582;-85
2021/12/28 09:34:29;;;;;;;33.22;24.27;;;11.00;99.90;;;;;;5060429;28;20020;-84
2021/12/28 09:36:58;;;;;;;33.25;23.85;;;11.00;99.90;;;;;;5056227;28;20112;-86
2021/12/28 09:39:26;;;;;;;37.33;24.02;;;11.10;99.90;;;;;;5033981;28;20397;-85
2021/12/28 09:42:01;;;;;;;31.13;24.55;;;11.20;99.90;;;;;;5058538;28;20009;-85
2021/12/28 09:44:29;;;;;;;34.00;23.85;;;11.40;99.90;;;;;;5056597;28;20055;-86
2021/12/28 09:46:55;;;;;;;34.75;22.98;;;11.70;99.90;;;;;;5053876;28;20130;-86
2021/12/28 09:49:21;;;;;;;35.00;22.73;;;11.90;99.90;;;;;;5035111;28;20025;-81
2021/12/28 09:51:46;;;;;;;25.05;18.15;;;12.20;99.90;;;;;;5034746;28;20033;-82
2021/12/28 09:54:12;;;;;;;23.55;17.17;;;12.40;99.90;;;;;;5035029;28;20025;-83
2021/12/28 09:56:44;;;;;;;21.75;17.02;;;12.50;99.90;;;;;;5053891;28;20021;-92
2021/12/28 09:59:10;;;;;;;23.55;17.42;;;12.60;99.90;;;;;;5035597;28;20040;-86
2021/12/28 10:01:36;;;;;;;23.45;19.42;;;12.70;99.90;;;;;;5040933;28;20032;-85
2021/12/28 10:04:02;;;;;;;19.73;14.85;;;12.70;99.90;;;;;;5052125;28;20112;-81
2021/12/28 10:06:30;;;;;;;23.95;17.67;;;12.60;99.90;;;;;;5051301;28;20021;-82
2021/12/28 10:09:16;;;;;;;21.67;15.02;;;12.50;99.90;;;;;;5052292;28;20029;-83
2021/12/28 10:11:53;;;;;;;20.50;16.15;;;12.40;99.90;;;;;;5055311;28;20582;-82
2021/12/28 10:14:27;;;;;;;26.00;18.25;;;12.40;99.90;;;;;;5054153;28;20021;-84
2021/12/28 10:16:59;;;;;;;25.65;18.70;;;12.40;99.90;;;;;;5051927;28;20028;-82
2021/12/28 10:19:43;;;;;;;27.95;19.33;;;12.40;99.90;;;;;;5050240;28;20043;-83
2021/12/28 10:22:42;;;;;;;26.83;18.38;;;12.30;99.90;;;;;;5050961;28;20051;-83
2021/12/28 10:25:15;;;;;;;25.52;19.55;;;12.50;99.90;;;;;;5043490;28;20423;-83
2021/12/28 10:27:46;;;;;;;28.23;20.33;;;12.70;99.90;;;;;;5052426;28;20040;-81
2021/12/28 10:30:29;;;;;;;29.48;19.83;;;12.90;99.90;;;;;;5034290;28;20061;-81
2021/12/28 10:33:04;;;;;;;25.70;18.13;;;12.90;99.90;;;;;;5053519;28;20467;-83
2021/12/28 10:35:33;;;;;;;25.60;19.00;;;12.70;99.90;;;;;;5037386;28;20036;-83
2021/12/28 10:38:04;;;;;;;26.80;18.17;;;12.30;99.90;;;;;;5030756;28;20033;-82
2021/12/28 10:40:39;;;;;;;25.38;18.08;;;11.80;99.90;;;;;;5050444;28;20135;-80
2021/12/28 10:43:12;;;;;;;35.53;25.63;;;11.50;99.90;;;;;;5047298;28;20021;-82
2021/12/28 10:45:45;;;;;;;34.60;23.38;;;11.40;99.90;;;;;;5036364;28;20087;-81
2021/12/28 10:48:30;;;;;;;32.17;19.48;;;11.30;99.90;;;;;;5047785;28;20048;-81
2021/12/28 10:51:05;;;;;;;29.95;18.95;;;11.40;99.90;;;;;;5030979;28;20025;-82
2021/12/28 10:54:02;;;;;;;28.92;18.63;;;11.40;99.90;;;;;;5036866;28;20426;-82
2021/12/28 10:56:36;;;;;;;25.35;18.52;;;11.60;99.90;;;;;;5060136;28;20036;-81
2021/12/28 10:59:05;;;;;;;24.10;16.60;;;11.70;99.90;;;;;;5053691;28;20041;-82
2021/12/28 11:01:33;;;;;;;19.00;14.93;;;12.00;99.90;;;;;;5054124;28;20483;-81
2021/12/28 11:04:04;;;;;;;18.55;13.43;;;12.20;99.90;;;;;;5049753;28;20020;-82
2021/12/28 11:06:39;;;;;;;18.15;12.55;;;12.40;99.90;;;;;;5053989;28;20070;-82
2021/12/28 11:09:09;;;;;;;20.13;12.38;;;12.50;99.90;;;;;;5061801;28;20032;-83
2021/12/28 11:11:40;;;;;;;16.55;11.70;;;12.50;99.90;;;;;;5057337;28;20028;-82
2021/12/28 11:14:13;;;;;;;16.48;10.27;;;12.50;99.90;;;;;;5013342;28;20059;-82
2021/12/28 11:16:42;;;;;;;16.70;11.98;;;12.50;99.90;;;;;;5034139;28;20040;-82
2021/12/28 11:19:10;;;;;;;21.02;12.43;;;12.40;99.90;;;;;;5023476;28;20054;-82
2021/12/28 11:21:39;;;;;;;21.92;12.55;;;12.20;99.90;;;;;;5016691;28;20025;-82
2021/12/28 11:24:10;;;;;;;17.30;12.70;;;12.00;99.90;;;;;;5024466;28;20056;-82
2021/12/28 11:26:48;;;;;;;25.65;15.93;;;11.70;99.90;;;;;;5023852;28;20083;-82
2021/12/28 11:29:15;;;;;;;21.52;15.60;;;11.50;99.90;;;;;;5024422;28;20041;-81
2021/12/28 11:31:44;;;;;;;22.15;16.90;;;11.30;99.90;;;;;;5028363;28;20025;-81
2021/12/28 11:34:15;;;;;;;24.40;17.63;;;11.10;99.90;;;;;;5024222;28;20059;-81
2021/12/28 11:36:48;;;;;;;25.85;18.65;;;10.90;99.90;;;;;;5027808;28;20052;-81
2021/12/28 11:39:23;;;;;;;27.45;18.60;;;10.70;99.90;;;;;;5026502;28;20033;-82
2021/12/28 11:41:50;;;;;;;28.17;18.38;;;10.70;99.90;;;;;;5006751;28;20025;-84
2021/12/28 11:44:19;;;;;;;31.40;22.15;;;10.60;99.90;;;;;;5028222;28;20033;-82
2021/12/28 11:46:49;;;;;;;40.47;26.55;;;10.60;99.90;;;;;;5028013;28;20100;-83
2021/12/28 11:49:18;;;;;;;33.47;22.65;;;10.40;99.90;;;;;;5009549;28;20037;-84
2021/12/28 11:51:46;;;;;;;25.00;20.65;;;10.40;99.90;;;;;;5023179;28;20034;-84
2021/12/28 11:54:14;;;;;;;25.45;17.52;;;10.50;99.90;;;;;;5024864;28;20096;-82
2021/12/28 11:56:52;;;;;;;24.40;16.52;;;10.50;99.90;;;;;;4994676;28;20038;-81
2021/12/28 11:59:23;;;;;;;22.42;17.13;;;10.70;99.90;;;;;;5028976;28;20033;-82
2021/12/28 12:02:00;;;;;;;20.08;16.75;;;10.80;99.90;;;;;;5017450;28;20068;-81
2021/12/28 12:04:32;;;;;;;24.25;16.88;;;10.80;99.90;;;;;;5012453;28;20026;-83
2021/12/28 12:07:09;;;;;;;;;;;10.90;99.90;;;;;;5019994;28;20034;-83
2021/12/28 12:09:53;;;;;;;23.63;16.05;;;10.90;99.90;;;;;;4998274;28;20433;-82
2021/12/28 12:12:20;;;;;;;18.02;14.57;;;11.00;99.90;;;;;;5025637;28;20029;-83
2021/12/28 12:14:56;;;;;;;20.08;16.33;;;10.90;99.90;;;;;;5028423;28;20472;-83
2021/12/28 12:17:31;;;;;;;21.60;15.70;;;10.80;99.90;;;;;;5037328;28;20048;-82
2021/12/28 12:20:38;;;;;;;24.15;17.70;;;10.80;99.90;;;;;;5027916;28;20040;-83
2021/12/28 12:23:18;;;;;;;25.23;19.50;;;10.60;99.90;;;;;;4994132;28;20404;-82
2021/12/28 12:25:59;;;;;;;27.92;18.38;;;10.50;99.90;;;;;;5024327;28;20507;-82
2021/12/28 12:28:31;;;;;;;26.95;19.52;;;10.50;99.90;;;;;;5013785;28;20030;-82
2021/12/28 12:30:58;;;;;;;28.38;18.73;;;10.40;99.90;;;;;;5028603;28;20091;-82
2021/12/28 12:33:37;;;;;;;21.80;16.45;;;10.50;99.90;;;;;;5031393;28;20476;-83
2021/12/28 12:36:04;;;;;;;19.05;14.70;;;10.70;99.90;;;;;;5030581;28;20029;-82
2021/12/28 12:38:39;;;;;;;17.45;14.27;;;10.70;99.90;;;;;;5021735;28;20042;-82
2021/12/28 12:41:38;;;;;;;26.58;17.05;;;10.60;99.90;;;;;;5019573;28;20476;-82
2021/12/28 12:44:14;;;;;;;24.52;18.23;;;10.50;99.90;;;;;;5010731;28;20050;-82
2021/12/28 12:46:55;;;;;;;32.13;17.48;;;10.40;99.90;;;;;;5028406;28;20021;-81
2021/12/28 12:49:27;;;;;;;22.08;17.27;;;10.40;99.90;;;;;;5015068;28;20030;-82
2021/12/28 12:51:59;;;;;;;25.10;19.05;;;10.40;99.90;;;;;;5013514;28;20033;-82
2021/12/28 12:54:38;;;;;;;22.35;16.77;;;10.30;99.90;;;;;;5038777;28;20029;-82
2021/12/28 12:57:09;;;;;;;26.17;19.13;;;10.30;99.90;;;;;;5025337;28;20034;-83
2021/12/28 12:59:51;;;;;;;24.40;17.92;;;10.30;99.90;;;;;;5038009;28;20029;-83
2021/12/28 13:02:36;;;;;;;28.73;21.38;;;10.30;99.90;;;;;;5042524;28;20028;-82
2021/12/28 13:05:14;;;;;;;24.92;18.52;;;10.40;99.90;;;;;;5027395;28;20433;-83
2021/12/28 13:07:40;;;;;;;27.63;19.10;;;10.40;99.90;;;;;;5049999;28;20391;-82
2021/12/28 13:10:26;;;;;;;33.28;18.77;;;10.30;99.90;;;;;;5060509;28;20025;-82
2021/12/28 13:12:58;;;;;;;23.92;18.08;;;10.30;99.90;;;;;;5069247;28;20024;-83
2021/12/28 13:15:30;;;;;;;25.97;17.83;;;10.30;99.90;;;;;;5057553;28;20105;-83
2021/12/28 13:17:57;;;;;;;26.70;15.93;;;10.40;99.90;;;;;;5049879;28;20386;-82
2021/12/28 13:20:31;;;;;;;21.27;15.57;;;10.30;99.90;;;;;;5051235;28;20061;-82
2021/12/28 13:23:01;;;;;;;24.85;16.60;;;10.30;99.90;;;;;;5047675;28;20053;-82
2021/12/28 13:25:31;;;;;;;19.15;14.45;;;10.40;99.90;;;;;;5037720;28;20033;-85
2021/12/28 13:27:58;;;;;;;21.02;16.02;;;10.40;99.90;;;;;;5036272;28;20128;-84
2021/12/28 13:30:30;;;;;;;22.98;15.77;;;10.50;99.90;;;;;;5029845;28;20124;-83
2021/12/28 13:32:56;;;;;;;23.17;13.65;;;10.60;99.90;;;;;;5031137;28;20675;-82
2021/12/28 13:35:30;;;;;;;24.70;14.20;;;10.70;99.90;;;;;;5036303;28;20056;-83
2021/12/28 13:38:02;;;;;;;21.85;13.63;;;10.80;99.90;;;;;;5051042;28;20037;-83
2021/12/28 13:40:35;;;;;;;21.20;13.65;;;11.00;99.90;;;;;;5028114;28;20025;-82
2021/12/28 13:43:03;;;;;;;17.58;13.02;;;11.30;99.90;;;;;;5043205;28;20412;-82
2021/12/28 13:45:42;;;;;;;23.40;13.90;;;11.40;99.90;;;;;;5018343;28;20116;-82
2021/12/28 13:48:27;;;;;;;20.40;14.57;;;11.50;99.90;;;;;;5012672;28;20061;-82
2021/12/28 13:51:01;;;;;;;18.75;13.82;;;11.60;99.90;;;;;;5034395;28;20029;-82
2021/12/28 13:53:29;;;;;;;20.98;13.07;;;11.70;99.90;;;;;;5032908;28;20021;-83
2021/12/28 13:56:08;;;;;;;18.90;12.10;;;11.70;99.90;;;;;;5040045;28;20115;-81
2021/12/28 13:58:37;;;;;;;15.93;12.75;;;11.80;99.90;;;;;;5040194;28;20228;-81
2021/12/28 14:01:14;;;;;;;21.23;15.13;;;11.80;99.90;;;;;;5027079;28;20029;-82
2021/12/28 14:03:41;;;;;;;19.23;14.88;;;11.80;99.90;;;;;;5038595;28;20061;-82
2021/12/28 14:06:09;;;;;;;18.52;14.30;;;11.70;99.90;;;;;;5040939;28;20072;-82
2021/12/28 14:08:39;;;;;;;21.20;14.13;;;11.70;99.90;;;;;;5049359;28;20029;-82
2021/12/28 14:11:05;;;;;;;22.70;14.48;;;11.70;99.90;;;;;;5039826;28;20030;-82
2021/12/28 14:13:34;;;;;;;23.98;15.43;;;11.60;99.90;;;;;;5013216;28;20037;-82
2021/12/28 14:16:09;;;;;;;27.88;17.45;;;11.40;99.90;;;;;;5019884;28;20025;-82
2021/12/28 14:18:49;;;;;;;24.95;16.55;;;11.20;99.90;;;;;;5048762;28;20036;-83
2021/12/28 14:21:25;;;;;;;24.17;15.10;;;11.10;99.90;;;;;;5043423;28;20017;-83
2021/12/28 14:24:03;;;;;;;21.15;14.30;;;11.10;99.90;;;;;;5043039;28;20380;-82
2021/12/28 14:26:35;;;;;;;22.05;14.18;;;11.00;99.90;;;;;;5033648;28;20419;-84
2021/12/28 14:29:10;;;;;;;18.75;14.18;;;10.90;99.90;;;;;;5031508;28;20032;-81
2021/12/28 14:31:50;;;;;;;22.40;14.57;;;10.90;99.90;;;;;;5036811;28;20052;-82
2021/12/28 14:34:45;;;;;;;26.92;14.63;;;10.80;99.90;;;;;;5031160;28;21107;-82
2021/12/28 14:37:22;;;;;;;25.40;16.75;;;10.80;99.90;;;;;;5023811;28;20072;-81
2021/12/28 14:39:57;;;;;;;20.95;14.82;;;10.80;99.90;;;;;;5032382;28;20055;-85
2021/12/28 14:42:32;;;;;;;20.85;13.10;;;10.90;99.90;;;;;;5028217;28;20471;-83
2021/12/28 14:45:04;;;;;;;20.33;13.88;;;10.90;99.90;;;;;;5033521;28;20500;-83
2021/12/28 14:47:31;;;;;;;20.13;14.70;;;10.90;99.90;;;;;;5046844;28;20367;-83
2021/12/28 14:50:01;;;;;;;22.98;15.75;;;10.80;99.90;;;;;;5039569;28;20281;-83
2021/12/28 14:52:32;;;;;;;24.60;17.27;;;10.70;99.90;;;;;;5032452;28;20388;-82
2021/12/28 14:55:25;;;;;;;35.10;24.48;;;10.60;99.90;;;;;;5037366;28;20078;-82
2021/12/28 14:57:53;;;;;;;35.92;23.13;;;10.40;99.90;;;;;;5048666;28;20093;-83
2021/12/28 15:00:32;;;;;;;30.95;21.48;;;10.40;99.90;;;;;;5041016;28;20033;-83
2021/12/28 15:03:02;;;;;;;28.23;18.98;;;10.30;99.90;;;;;;5028972;28;20018;-81
2021/12/28 15:05:32;;;;;;;31.10;19.35;;;10.20;99.90;;;;;;4979256;28;20057;-81
2021/12/28 15:08:03;;;;;;;30.38;20.50;;;10.10;99.90;;;;;;5017415;28;20058;-82
2021/12/28 15:10:33;;;;;;;31.27;20.42;;;10.00;99.90;;;;;;5002892;28;20076;-83
2021/12/28 15:13:08;;;;;;;29.90;21.70;;;9.90;99.90;;;;;;5020498;28;20025;-82
2021/12/28 15:15:37;;;;;;;37.03;23.25;;;9.90;99.90;;;;;;5021573;28;20559;-82
2021/12/28 15:18:05;;;;;;;33.28;23.00;;;9.90;99.90;;;;;;5014480;28;20108;-83
2021/12/28 15:20:31;;;;;;;34.25;22.92;;;9.80;99.90;;;;;;5012832;28;20040;-82
2021/12/28 15:22:57;;;;;;;44.90;25.25;;;9.80;99.90;;;;;;5030250;28;20133;-82
2021/12/28 15:25:23;;;;;;;43.78;27.05;;;9.80;99.90;;;;;;5020021;28;20568;-85
2021/12/28 15:27:50;;;;;;;38.80;26.10;;;9.80;99.90;;;;;;5027670;28;20492;-84
2021/12/28 15:30:19;;;;;;;34.00;26.85;;;9.80;99.90;;;;;;5000777;28;20038;-84
2021/12/28 15:32:48;;;;;;;39.38;26.77;;;9.80;99.90;;;;;;5028287;28;20109;-83